Time;durP1;ratioP1;P1;durP2;ratioP2;P2;SDS_P1;SDS_P2;PMS_P1;PMS_P2;Temp;Humidity;BMP_temperature;BMP_pressure;BME280_temperature;BME280_humidity;BME280_pressure;Samples;Min_cycle;Max_cycle;Signal;HPM_P1;HPM_P2
2024/01/15 00:01:36;;;;;;;23.90;14.20;;;;;;;;;;5095129;28;20929;-71
2024/01/15 00:04:04;;;;;;;20.90;12.77;;;;;;;;;;5087082;28;20460;-70
2024/01/15 00:06:32;;;;;;;25.37;12.80;;;;;;;;;;5087032;28;20958;-70
2024/01/15 00:08:59;;;;;;;20.77;13.40;;;;;;;;;;5094375;28;20459;-71
2024/01/15 00:11:25;;;;;;;19.33;12.13;;;;;;;;;;5098869;28;20923;-71
2024/01/15 00:13:51;;;;;;;18.90;10.33;;;;;;;;;;5090345;28;20450;-71
2024/01/15 00:16:18;;;;;;;20.83;11.40;;;;;;;;;;5083473;28;20519;-70
2024/01/15 00:18:44;;;;;;;20.77;12.10;;;;;;;;;;5082982;28;20495;-69
2024/01/15 00:21:12;;;;;;;21.20;11.97;;;;;;;;;;5091587;28;20443;-70
2024/01/15 00:23:43;;;;;;;19.30;11.43;;;;;;;;;;5092460;28;20520;-71
2024/01/15 00:26:09;;;;;;;19.53;12.80;;;;;;;;;;5089864;28;20538;-69
2024/01/15 00:28:36;;;;;;;20.37;12.03;;;;;;;;;;5091841;28;20527;-70
2024/01/15 00:31:03;;;;;;;24.60;11.60;;;;;;;;;;5092934;28;20454;-71
2024/01/15 00:33:30;;;;;;;22.20;12.70;;;;;;;;;;5095581;28;20445;-71
2024/01/15 00:35:56;;;;;;;21.40;9.80;;;;;;;;;;5091802;28;21295;-71
2024/01/15 00:38:24;;;;;;;22.03;10.83;;;;;;;;;;5095487;28;20549;-72
2024/01/15 00:40:50;;;;;;;20.23;11.00;;;;;;;;;;5093522;28;20478;-72
2024/01/15 00:43:18;;;;;;;14.73;9.10;;;;;;;;;;5091929;28;20515;-69
2024/01/15 00:45:44;;;;;;;20.73;11.00;;;;;;;;;;5087761;28;20455;-70
2024/01/15 00:48:10;;;;;;;18.90;9.53;;;;;;;;;;5085588;28;20554;-70
2024/01/15 00:50:37;;;;;;;20.80;10.40;;;;;;;;;;5090380;28;20507;-71
2024/01/15 00:53:03;;;;;;;20.10;10.40;;;;;;;;;;5097438;28;20558;-69
2024/01/15 00:55:31;;;;;;;14.40;9.63;;;;;;;;;;5096464;28;20527;-71
2024/01/15 00:57:58;;;;;;;22.67;9.93;;;;;;;;;;5097945;28;20534;-68
2024/01/15 01:00:24;;;;;;;20.40;9.53;;;;;;;;;;5098715;28;20454;-69
2024/01/15 01:02:50;;;;;;;16.83;10.33;;;;;;;;;;5091820;28;20478;-70
2024/01/15 01:05:17;;;;;;;20.93;11.00;;;;;;;;;;5094349;28;20474;-70
2024/01/15 01:07:43;;;;;;;14.77;9.17;;;;;;;;;;5097067;28;20567;-71
2024/01/15 01:10:10;;;;;;;18.93;9.63;;;;;;;;;;5096956;28;20517;-70
2024/01/15 01:12:38;;;;;;;16.20;11.13;;;;;;;;;;5093767;28;20484;-71
2024/01/15 01:15:05;;;;;;;19.33;10.67;;;;;;;;;;5094469;28;20542;-72
2024/01/15 01:17:31;;;;;;;26.17;9.83;;;;;;;;;;5100970;28;20493;-71
2024/01/15 01:19:58;;;;;;;13.90;9.13;;;;;;;;;;5106610;28;20940;-68
2024/01/15 01:22:24;;;;;;;24.30;9.33;;;;;;;;;;5096537;28;20535;-72
2024/01/15 01:24:50;;;;;;;19.27;8.93;;;;;;;;;;5096116;28;20482;-72
2024/01/15 01:27:17;;;;;;;14.33;8.67;;;;;;;;;;5096307;28;20490;-65
2024/01/15 01:29:45;;;;;;;15.63;7.77;;;;;;;;;;5097514;28;20554;-65
2024/01/15 01:32:11;;;;;;;13.47;8.17;;;;;;;;;;5090185;28;20503;-65
2024/01/15 01:34:41;;;;;;;13.10;7.70;;;;;;;;;;5088786;28;20886;-65
2024/01/15 01:37:07;;;;;;;13.40;7.20;;;;;;;;;;5092175;28;20480;-66
2024/01/15 01:39:34;;;;;;;12.83;7.23;;;;;;;;;;5095683;28;20561;-65
2024/01/15 01:42:00;;;;;;;16.57;7.37;;;;;;;;;;5096088;28;21057;-65
2024/01/15 01:44:26;;;;;;;11.57;6.80;;;;;;;;;;5096343;28;20465;-64
2024/01/15 01:46:54;;;;;;;13.37;6.93;;;;;;;;;;5096720;28;20558;-65
2024/01/15 01:49:21;;;;;;;8.97;6.17;;;;;;;;;;5094685;28;20448;-65
2024/01/15 01:51:48;;;;;;;13.80;6.77;;;;;;;;;;5090332;28;20522;-66
2024/01/15 01:54:14;;;;;;;11.50;7.53;;;;;;;;;;5089439;28;20475;-65
2024/01/15 01:56:41;;;;;;;14.23;7.10;;;;;;;;;;5093601;28;20561;-66
2024/01/15 01:59:08;;;;;;;10.53;6.43;;;;;;;;;;5098321;28;20494;-65
2024/01/15 02:01:35;;;;;;;17.37;8.63;;;;;;;;;;5092689;28;20452;-65
2024/01/15 02:04:04;;;;;;;9.83;6.43;;;;;;;;;;5095262;28;20534;-67
2024/01/15 02:06:30;;;;;;;17.93;6.03;;;;;;;;;;5093712;28;20475;-66
2024/01/15 02:08:57;;;;;;;9.57;6.53;;;;;;;;;;5092644;28;20558;-66
2024/01/15 02:11:23;;;;;;;12.77;6.73;;;;;;;;;;5099150;28;20471;-65
2024/01/15 02:13:50;;;;;;;14.80;7.03;;;;;;;;;;5094703;28;20897;-66
2024/01/15 02:16:17;;;;;;;11.93;6.47;;;;;;;;;;5093449;28;20494;-65
2024/01/15 02:18:44;;;;;;;16.77;6.93;;;;;;;;;;5088782;28;20443;-64
2024/01/15 02:21:12;;;;;;;11.33;6.37;;;;;;;;;;5092233;28;20483;-64
2024/01/15 02:23:40;;;;;;;16.23;6.57;;;;;;;;;;5097845;28;20516;-65
2024/01/15 02:26:06;;;;;;;18.83;6.47;;;;;;;;;;5091836;28;20477;-65
2024/01/15 02:28:33;;;;;;;10.83;5.93;;;;;;;;;;5084570;28;20554;-66
2024/01/15 02:30:59;;;;;;;13.23;7.43;;;;;;;;;;5102245;28;20480;-66
2024/01/15 02:33:26;;;;;;;12.90;6.70;;;;;;;;;;5092523;28;20515;-65
2024/01/15 02:35:52;;;;;;;11.93;7.10;;;;;;;;;;5093672;28;20570;-65
2024/01/15 02:38:19;;;;;;;17.83;7.37;;;;;;;;;;5090626;28;21022;-64
2024/01/15 02:40:46;;;;;;;15.53;7.20;;;;;;;;;;5089435;28;20483;-65
2024/01/15 02:43:13;;;;;;;11.00;6.90;;;;;;;;;;5085166;28;20478;-65
2024/01/15 02:45:40;;;;;;;17.53;8.67;;;;;;;;;;5096696;28;20569;-65
2024/01/15 02:48:07;;;;;;;9.67;6.83;;;;;;;;;;5096146;28;20501;-65
2024/01/15 02:50:33;;;;;;;11.30;7.10;;;;;;;;;;5098152;28;21117;-65
2024/01/15 02:52:59;;;;;;;16.43;8.07;;;;;;;;;;5096056;28;20576;-64
2024/01/15 02:55:29;;;;;;;12.30;7.77;;;;;;;;;;5093338;28;20538;-64
2024/01/15 02:57:57;;;;;;;13.40;7.13;;;;;;;;;;5096691;28;20490;-65
2024/01/15 03:00:23;;;;;;;13.00;5.90;;;;;;;;;;5094080;28;20462;-64
2024/01/15 03:02:51;;;;;;;14.93;6.80;;;;;;;;;;5092382;28;20576;-65
2024/01/15 03:05:17;;;;;;;11.60;7.50;;;;;;;;;;5096637;28;21048;-65
2024/01/15 03:07:44;;;;;;;19.67;7.67;;;;;;;;;;5094625;28;20450;-64
2024/01/15 03:10:10;;;;;;;19.70;7.10;;;;;;;;;;5095542;28;20984;-65
2024/01/15 03:12:37;;;;;;;14.40;6.87;;;;;;;;;;5096837;28;20521;-65
2024/01/15 03:15:05;;;;;;;11.70;7.70;;;;;;;;;;5089560;28;20468;-65
2024/01/15 03:17:32;;;;;;;10.60;7.30;;;;;;;;;;5084028;28;20498;-65
2024/01/15 03:19:58;;;;;;;13.20;7.07;;;;;;;;;;5095441;28;20482;-65
2024/01/15 03:22:24;;;;;;;12.80;7.40;;;;;;;;;;5096517;28;20450;-65
2024/01/15 03:24:51;;;;;;;10.40;7.93;;;;;;;;;;5089715;28;20877;-65
2024/01/15 03:27:17;;;;;;;12.47;7.43;;;;;;;;;;5092861;28;20509;-66
2024/01/15 03:29:44;;;;;;;13.93;7.90;;;;;;;;;;5092632;28;20486;-65
2024/01/15 03:32:11;;;;;;;12.83;8.10;;;;;;;;;;5097437;28;20514;-66
2024/01/15 03:34:38;;;;;;;12.73;8.00;;;;;;;;;;5098751;28;20445;-64
2024/01/15 03:37:04;;;;;;;17.00;7.87;;;;;;;;;;5090531;28;20901;-66
2024/01/15 03:39:31;;;;;;;13.93;7.73;;;;;;;;;;5092286;28;20470;-66
2024/01/15 03:41:57;;;;;;;14.73;7.53;;;;;;;;;;5091977;28;20526;-65
2024/01/15 03:44:23;;;;;;;9.57;7.13;;;;;;;;;;5095862;28;20447;-65
2024/01/15 03:46:50;;;;;;;13.53;8.30;;;;;;;;;;5091854;28;21018;-66
2024/01/15 03:49:18;;;;;;;13.30;8.00;;;;;;;;;;5097166;28;20482;-65
2024/01/15 03:51:44;;;;;;;12.30;7.13;;;;;;;;;;5094178;28;20479;-66
2024/01/15 03:54:10;;;;;;;12.20;7.23;;;;;;;;;;5089094;28;20518;-66
2024/01/15 03:56:37;;;;;;;15.47;7.50;;;;;;;;;;5091069;28;20455;-65
2024/01/15 03:59:03;;;;;;;12.40;7.80;;;;;;;;;;5088516;28;20467;-65
2024/01/15 04:01:30;;;;;;;12.23;8.00;;;;;;;;;;5091844;28;20447;-65
2024/01/15 04:03:56;;;;;;;15.70;7.83;;;;;;;;;;5095839;28;21367;-65
2024/01/15 04:06:24;;;;;;;12.57;6.50;;;;;;;;;;5094331;28;20482;-66
2024/01/15 04:08:51;;;;;;;16.47;7.20;;;;;;;;;;5093056;28;20497;-66
2024/01/15 04:11:17;;;;;;;13.40;7.70;;;;;;;;;;5096362;28;20479;-67
2024/01/15 04:13:43;;;;;;;11.77;6.60;;;;;;;;;;5094996;28;20554;-65
2024/01/15 04:16:10;;;;;;;9.57;6.00;;;;;;;;;;5091676;28;20507;-65
2024/01/15 04:18:36;;;;;;;13.43;7.07;;;;;;;;;;5096589;28;20455;-65
2024/01/15 04:21:04;;;;;;;13.93;7.10;;;;;;;;;;5095073;28;20454;-65
2024/01/15 04:23:32;;;;;;;15.27;5.60;;;;;;;;;;5095169;28;20515;-65
2024/01/15 04:25:58;;;;;;;10.43;6.40;;;;;;;;;;5091800;28;20467;-65
2024/01/15 04:28:25;;;;;;;10.00;5.83;;;;;;;;;;5093303;28;21102;-65
2024/01/15 04:30:51;;;;;;;13.80;7.47;;;;;;;;;;5098980;28;20506;-66
2024/01/15 04:33:18;;;;;;;19.63;7.83;;;;;;;;;;5087972;28;20506;-66
2024/01/15 04:35:44;;;;;;;11.93;7.00;;;;;;;;;;5097586;28;20487;-66
2024/01/15 04:38:10;;;;;;;10.40;6.17;;;;;;;;;;5096299;28;20556;-66
2024/01/15 04:40:38;;;;;;;12.13;6.50;;;;;;;;;;5108254;28;20948;-65
2024/01/15 04:43:07;;;;;;;10.97;6.63;;;;;;;;;;5098864;28;20539;-67
2024/01/15 04:45:33;;;;;;;10.27;6.57;;;;;;;;;;5097696;28;20478;-66
2024/01/15 04:47:59;;;;;;;23.00;7.03;;;;;;;;;;5086311;28;20828;-66
2024/01/15 04:50:26;;;;;;;15.43;6.77;;;;;;;;;;5098833;28;20227;-65
2024/01/15 04:52:52;;;;;;;17.00;5.70;;;;;;;;;;5095171;28;20493;-65
2024/01/15 04:55:18;;;;;;;14.17;7.13;;;;;;;;;;5094438;28;20518;-64
2024/01/15 04:57:47;;;;;;;9.10;5.63;;;;;;;;;;5092778;28;20533;-64
2024/01/15 05:00:14;;;;;;;10.43;6.20;;;;;;;;;;5093853;28;20458;-64
2024/01/15 05:02:41;;;;;;;11.13;6.00;;;;;;;;;;5099772;28;20527;-64
2024/01/15 05:05:07;;;;;;;7.87;4.87;;;;;;;;;;5100233;28;21011;-65
2024/01/15 05:07:34;;;;;;;8.10;5.77;;;;;;;;;;5093560;28;20446;-66
2024/01/15 05:10:00;;;;;;;13.93;5.70;;;;;;;;;;5096764;28;20450;-64
2024/01/15 05:12:26;;;;;;;8.43;6.00;;;;;;;;;;5095274;28;20485;-64
2024/01/15 05:14:54;;;;;;;12.00;5.47;;;;;;;;;;5097087;28;20510;-66
2024/01/15 05:17:20;;;;;;;8.60;6.00;;;;;;;;;;5098551;28;20467;-64
2024/01/15 05:19:47;;;;;;;13.20;6.23;;;;;;;;;;5098203;28;20886;-64
2024/01/15 05:22:13;;;;;;;12.53;6.80;;;;;;;;;;5096804;28;20466;-65
2024/01/15 05:24:40;;;;;;;15.47;5.73;;;;;;;;;;5092567;28;20518;-64
2024/01/15 05:27:06;;;;;;;9.17;6.00;;;;;;;;;;5099203;28;20482;-65
2024/01/15 05:29:32;;;;;;;12.03;6.80;;;;;;;;;;5097848;28;20486;-65
2024/01/15 05:32:00;;;;;;;10.00;6.10;;;;;;;;;;5090326;28;21095;-64
2024/01/15 05:34:26;;;;;;;12.43;5.97;;;;;;;;;;5090573;28;20506;-65
2024/01/15 05:36:53;;;;;;;10.73;6.13;;;;;;;;;;5091634;28;20564;-64
2024/01/15 05:39:19;;;;;;;10.40;6.20;;;;;;;;;;5097719;28;20508;-65
2024/01/15 05:41:46;;;;;;;10.37;5.87;;;;;;;;;;5098215;28;20515;-64
2024/01/15 05:44:12;;;;;;;12.67;6.03;;;;;;;;;;5097636;28;20483;-65
2024/01/15 05:46:39;;;;;;;8.37;5.90;;;;;;;;;;5099038;28;20537;-65
2024/01/15 05:49:06;;;;;;;7.40;5.80;;;;;;;;;;5107310;28;20966;-64
2024/01/15 05:51:33;;;;;;;9.90;6.33;;;;;;;;;;5093594;28;20538;-64
2024/01/15 05:53:59;;;;;;;10.23;6.87;;;;;;;;;;5093115;28;21050;-65
2024/01/15 05:56:25;;;;;;;7.77;5.53;;;;;;;;;;5094573;28;20511;-65
2024/01/15 05:58:52;;;;;;;9.17;5.33;;;;;;;;;;5095266;28;20554;-66
2024/01/15 06:01:18;;;;;;;16.17;6.27;;;;;;;;;;5095238;28;20465;-65
2024/01/15 06:03:45;;;;;;;12.07;4.93;;;;;;;;;;5097812;28;20558;-66
2024/01/15 06:06:13;;;;;;;15.83;4.77;;;;;;;;;;5092575;28;20483;-64
2024/01/15 06:08:39;;;;;;;6.13;4.90;;;;;;;;;;5094959;28;20514;-64
2024/01/15 06:11:05;;;;;;;7.27;4.97;;;;;;;;;;5094399;28;21007;-64
2024/01/15 06:13:32;;;;;;;8.07;6.93;;;;;;;;;;5084723;28;20886;-64
2024/01/15 06:15:58;;;;;;;10.03;4.40;;;;;;;;;;5098083;28;20538;-64
2024/01/15 06:18:24;;;;;;;9.27;5.87;;;;;;;;;;5088690;28;21278;-67
2024/01/15 06:20:51;;;;;;;8.57;5.30;;;;;;;;;;5086129;28;20510;-67
2024/01/15 06:23:19;;;;;;;8.50;4.87;;;;;;;;;;5090406;28;20467;-67
2024/01/15 06:25:45;;;;;;;13.03;6.13;;;;;;;;;;5089209;28;21007;-67
2024/01/15 06:28:11;;;;;;;8.20;5.90;;;;;;;;;;5084758;28;21048;-67
2024/01/15 06:30:38;;;;;;;9.93;5.87;;;;;;;;;;5091025;28;20499;-67
2024/01/15 06:33:05;;;;;;;10.60;5.90;;;;;;;;;;5091205;28;20487;-67
2024/01/15 06:35:31;;;;;;;10.17;6.40;;;;;;;;;;5095465;28;20479;-63
2024/01/15 06:37:58;;;;;;;13.57;6.37;;;;;;;;;;5088775;28;20480;-65
2024/01/15 06:40:26;;;;;;;10.97;5.97;;;;;;;;;;5089207;28;20526;-66
2024/01/15 06:42:52;;;;;;;7.57;5.70;;;;;;;;;;5089000;28;20488;-67
2024/01/15 06:45:18;;;;;;;10.20;5.30;;;;;;;;;;5090611;28;20540;-65
2024/01/15 06:47:45;;;;;;;11.20;6.60;;;;;;;;;;5089801;28;20502;-66
2024/01/15 06:50:11;;;;;;;9.60;5.97;;;;;;;;;;5091682;28;20443;-66
2024/01/15 06:52:38;;;;;;;9.47;5.70;;;;;;;;;;5088468;28;20940;-64
2024/01/15 06:55:05;;;;;;;14.80;5.77;;;;;;;;;;5096530;28;21989;-65
2024/01/15 06:57:33;;;;;;;6.30;4.37;;;;;;;;;;5085507;28;20467;-66
2024/01/15 07:00:00;;;;;;;5.60;5.00;;;;;;;;;;5092324;28;20478;-65
2024/01/15 07:02:27;;;;;;;12.13;5.73;;;;;;;;;;5088957;28;20875;-66
2024/01/15 07:04:53;;;;;;;9.93;5.23;;;;;;;;;;5097115;28;20955;-65
2024/01/15 07:07:19;;;;;;;7.77;5.80;;;;;;;;;;5086439;28;20630;-66
2024/01/15 07:09:46;;;;;;;6.00;4.80;;;;;;;;;;5081428;28;20486;-65
2024/01/15 07:12:12;;;;;;;8.00;5.57;;;;;;;;;;5093482;28;20536;-67
2024/01/15 07:14:40;;;;;;;7.13;5.33;;;;;;;;;;5094817;28;20551;-66
2024/01/15 07:17:06;;;;;;;10.80;6.60;;;;;;;;;;5103884;28;20480;-64
2024/01/15 07:19:33;;;;;;;7.50;6.07;;;;;;;;;;5090800;28;20560;-65
2024/01/15 07:22:00;;;;;;;10.20;5.23;;;;;;;;;;5101068;28;20521;-68
2024/01/15 07:24:26;;;;;;;6.70;4.70;;;;;;;;;;5088535;28;20486;-66
2024/01/15 07:26:52;;;;;;;7.03;5.10;;;;;;;;;;5095408;28;20482;-66
2024/01/15 07:29:19;;;;;;;13.57;5.97;;;;;;;;;;5096713;28;20550;-66
2024/01/15 07:31:50;;;;;;;12.97;5.37;;;;;;;;;;5089803;28;20506;-67
2024/01/15 07:34:16;;;;;;;9.23;5.00;;;;;;;;;;5096806;28;20510;-64
2024/01/15 07:36:43;;;;;;;10.80;6.27;;;;;;;;;;5094815;28;20933;-65
2024/01/15 07:39:09;;;;;;;7.70;6.57;;;;;;;;;;5088382;28;20535;-64
2024/01/15 07:41:36;;;;;;;9.77;6.40;;;;;;;;;;5092967;28;20481;-65
2024/01/15 07:44:03;;;;;;;9.93;5.30;;;;;;;;;;5098473;28;20563;-65
2024/01/15 07:46:29;;;;;;;10.80;5.80;;;;;;;;;;5095419;28;20532;-64
2024/01/15 07:48:57;;;;;;;11.50;5.63;;;;;;;;;;5089253;28;20546;-64
2024/01/15 07:51:24;;;;;;;9.57;5.97;;;;;;;;;;5092292;28;20459;-64
2024/01/15 07:53:50;;;;;;;8.07;5.20;;;;;;;;;;5098957;28;20518;-64
2024/01/15 07:56:16;;;;;;;9.23;5.90;;;;;;;;;;5090765;28;20483;-65
2024/01/15 07:58:43;;;;;;;6.63;5.73;;;;;;;;;;5094625;28;20459;-64
2024/01/15 08:01:09;;;;;;;10.07;5.63;;;;;;;;;;5090381;28;20467;-65
2024/01/15 08:03:36;;;;;;;8.43;6.30;;;;;;;;;;5095118;28;20478;-68
2024/01/15 08:06:04;;;;;;;8.77;5.00;;;;;;;;;;5095526;28;20478;-67
2024/01/15 08:08:30;;;;;;;6.70;6.00;;;;;;;;;;5094909;28;21111;-66
2024/01/15 08:10:57;;;;;;;11.00;5.43;;;;;;;;;;5096148;28;20467;-64
2024/01/15 08:13:23;;;;;;;6.07;5.47;;;;;;;;;;5092245;28;20459;-68
2024/01/15 08:15:50;;;;;;;5.00;4.47;;;;;;;;;;5099903;28;20511;-67
2024/01/15 08:18:16;;;;;;;6.77;5.27;;;;;;;;;;5102829;28;20455;-64
2024/01/15 08:20:43;;;;;;;6.03;4.90;;;;;;;;;;5093414;28;20478;-67
2024/01/15 08:23:10;;;;;;;8.70;5.50;;;;;;;;;;5087109;28;20451;-66
2024/01/15 08:25:37;;;;;;;8.70;5.73;;;;;;;;;;5090965;28;20467;-67
2024/01/15 08:28:03;;;;;;;7.10;5.57;;;;;;;;;;5095222;28;20493;-65
2024/01/15 08:30:30;;;;;;;7.60;5.50;;;;;;;;;;5096157;28;20890;-65
2024/01/15 08:32:56;;;;;;;5.70;5.10;;;;;;;;;;5093804;28;20521;-65
2024/01/15 08:35:23;;;;;;;5.00;4.23;;;;;;;;;;5093962;28;20554;-67
2024/01/15 08:37:49;;;;;;;8.83;5.20;;;;;;;;;;5093965;28;20546;-66
2024/01/15 08:40:17;;;;;;;6.80;5.03;;;;;;;;;;5098044;28;20453;-65
2024/01/15 08:42:44;;;;;;;6.00;4.33;;;;;;;;;;5096496;28;20451;-65
2024/01/15 08:45:11;;;;;;;6.53;5.50;;;;;;;;;;5095352;28;20455;-65
2024/01/15 08:47:38;;;;;;;6.50;5.20;;;;;;;;;;5093092;28;20535;-68
2024/01/15 08:50:04;;;;;;;4.90;3.93;;;;;;;;;;5092439;28;20493;-67
2024/01/15 08:52:31;;;;;;;4.93;4.40;;;;;;;;;;5092953;28;20451;-68
2024/01/15 08:54:57;;;;;;;4.80;4.40;;;;;;;;;;5095721;28;20510;-67
2024/01/15 08:57:25;;;;;;;6.03;5.30;;;;;;;;;;5083773;28;20527;-67
2024/01/15 08:59:52;;;;;;;5.07;4.60;;;;;;;;;;5093145;28;20487;-66
2024/01/15 09:02:18;;;;;;;6.70;5.23;;;;;;;;;;5101967;28;20455;-65
2024/01/15 09:04:45;;;;;;;4.70;4.30;;;;;;;;;;5102005;28;20538;-66
2024/01/15 09:07:11;;;;;;;5.53;5.03;;;;;;;;;;5089660;28;20468;-66
2024/01/15 09:09:38;;;;;;;7.50;5.77;;;;;;;;;;5089085;28;20508;-62
2024/01/15 09:12:04;;;;;;;5.30;4.80;;;;;;;;;;5098489;28;20949;-65
2024/01/15 09:14:34;;;;;;;6.17;5.33;;;;;;;;;;5103858;28;20506;-66
2024/01/15 09:17:00;;;;;;;6.17;5.20;;;;;;;;;;5093379;28;20488;-66
2024/01/15 09:19:27;;;;;;;6.40;5.30;;;;;;;;;;5099002;28;20542;-66
2024/01/15 09:21:53;;;;;;;9.57;5.53;;;;;;;;;;5088548;28;20447;-65
2024/01/15 09:24:20;;;;;;;5.90;5.27;;;;;;;;;;5094939;28;20493;-65
2024/01/15 09:26:46;;;;;;;8.23;5.77;;;;;;;;;;5096374;28;20436;-65
2024/01/15 09:29:15;;;;;;;7.13;5.50;;;;;;;;;;5095659;28;20478;-69
2024/01/15 09:31:43;;;;;;;9.20;5.37;;;;;;;;;;5089218;28;20451;-64
2024/01/15 09:34:11;;;;;;;5.53;4.97;;;;;;;;;;5095801;28;21099;-67
2024/01/15 09:36:40;;;;;;;4.67;4.23;;;;;;;;;;5099187;28;20455;-67
2024/01/15 09:39:08;;;;;;;6.73;4.57;;;;;;;;;;5097428;28;20489;-67
2024/01/15 09:41:34;;;;;;;12.70;5.70;;;;;;;;;;5093487;28;20454;-68
2024/01/15 09:44:02;;;;;;;6.63;5.50;;;;;;;;;;5095114;28;21465;-67
2024/01/15 09:46:28;;;;;;;7.93;5.90;;;;;;;;;;5108233;28;20450;-68
2024/01/15 09:48:56;;;;;;;9.20;5.83;;;;;;;;;;5092470;28;20494;-66
2024/01/15 09:51:23;;;;;;;6.40;5.60;;;;;;;;;;5092697;28;20440;-68
2024/01/15 09:53:49;;;;;;;12.43;6.00;;;;;;;;;;5088616;28;20462;-66
2024/01/15 09:56:18;;;;;;;11.10;6.30;;;;;;;;;;5096277;28;20482;-66
2024/01/15 09:58:45;;;;;;;8.13;6.00;;;;;;;;;;5097962;28;20487;-65
2024/01/15 10:01:12;;;;;;;9.80;5.60;;;;;;;;;;5100156;28;20458;-65
2024/01/15 10:03:39;;;;;;;12.30;5.70;;;;;;;;;;5091665;28;20513;-65
2024/01/15 10:06:09;;;;;;;6.23;5.43;;;;;;;;;;5092751;28;20476;-65
2024/01/15 10:08:37;;;;;;;8.00;5.20;;;;;;;;;;5099079;28;20969;-66
2024/01/15 10:11:04;;;;;;;10.27;5.03;;;;;;;;;;5099167;28;20477;-64
2024/01/15 10:13:31;;;;;;;10.33;5.83;;;;;;;;;;5095175;28;20452;-64
2024/01/15 10:15:59;;;;;;;6.30;5.40;;;;;;;;;;5103023;28;20491;-64
2024/01/15 10:18:26;;;;;;;9.70;5.40;;;;;;;;;;5095010;28;20467;-64
2024/01/15 10:20:52;;;;;;;12.23;5.53;;;;;;;;;;5096262;28;20463;-64
2024/01/15 10:23:20;;;;;;;7.00;6.40;;;;;;;;;;5096546;28;20459;-65
2024/01/15 10:25:47;;;;;;;10.20;6.57;;;;;;;;;;5094052;28;20511;-64
2024/01/15 10:28:14;;;;;;;9.87;6.10;;;;;;;;;;5095476;28;20935;-64
2024/01/15 10:30:40;;;;;;;8.30;5.40;;;;;;;;;;5098578;28;20454;-64
2024/01/15 10:33:07;;;;;;;8.73;6.40;;;;;;;;;;5096488;28;20555;-68
2024/01/15 10:35:34;;;;;;;11.80;5.70;;;;;;;;;;5090889;28;20498;-67
2024/01/15 10:38:01;;;;;;;10.97;6.30;;;;;;;;;;5094656;28;20482;-66
2024/01/15 10:40:28;;;;;;;12.47;6.20;;;;;;;;;;5100078;28;20492;-66
2024/01/15 10:42:55;;;;;;;9.17;5.83;;;;;;;;;;5096846;28;21134;-66
2024/01/15 10:45:21;;;;;;;7.10;5.60;;;;;;;;;;5093680;28;20467;-65
2024/01/15 10:47:48;;;;;;;9.27;5.80;;;;;;;;;;5094767;28;20538;-65
2024/01/15 10:50:15;;;;;;;8.03;5.83;;;;;;;;;;5090545;28;20557;-64
2024/01/15 10:52:43;;;;;;;7.20;5.77;;;;;;;;;;5097529;28;20470;-64
2024/01/15 10:55:09;;;;;;;6.97;5.80;;;;;;;;;;5094137;28;21163;-64
2024/01/15 10:57:37;;;;;;;8.47;4.90;;;;;;;;;;5096027;28;20465;-62
2024/01/15 11:00:05;;;;;;;9.73;5.80;;;;;;;;;;5091799;28;20633;-66
2024/01/15 11:02:32;;;;;;;6.27;5.77;;;;;;;;;;5089344;28;20444;-66
2024/01/15 11:04:59;;;;;;;7.80;5.60;;;;;;;;;;5086165;28;21181;-64
2024/01/15 11:07:26;;;;;;;6.10;5.10;;;;;;;;;;5094094;28;20451;-63
2024/01/15 11:09:51;;;;;;;8.87;4.93;;;;;;;;;;5090897;28;20455;-64
2024/01/15 11:12:19;;;;;;;10.03;4.70;;;;;;;;;;5098300;28;20473;-64
2024/01/15 11:14:48;;;;;;;5.60;5.00;;;;;;;;;;5093110;28;20240;-63
2024/01/15 11:17:15;;;;;;;9.33;4.73;;;;;;;;;;5093510;28;20466;-64
2024/01/15 11:19:43;;;;;;;4.30;3.97;;;;;;;;;;5095343;28;20466;-64
2024/01/15 11:22:11;;;;;;;9.23;5.37;;;;;;;;;;5095773;28;20447;-65
2024/01/15 11:24:38;;;;;;;9.83;5.53;;;;;;;;;;5096321;28;20527;-65
2024/01/15 11:27:05;;;;;;;9.57;4.80;;;;;;;;;;5094832;28;20454;-63
2024/01/15 11:29:35;;;;;;;5.90;4.73;;;;;;;;;;5096666;28;20465;-63
2024/01/15 11:32:04;;;;;;;6.20;4.63;;;;;;;;;;5099153;28;20443;-64
2024/01/15 11:34:49;;;;;;;7.37;4.73;;;;;;;;;;5087047;28;20460;-64
2024/01/15 11:37:16;;;;;;;8.40;5.50;;;;;;;;;;5089678;28;20548;-65
2024/01/15 11:39:43;;;;;;;5.07;4.60;;;;;;;;;;5095669;28;20493;-65
2024/01/15 11:42:11;;;;;;;5.07;4.57;;;;;;;;;;5095588;28;20442;-65
2024/01/15 11:44:37;;;;;;;5.00;4.60;;;;;;;;;;5094522;28;20534;-65
2024/01/15 11:47:06;;;;;;;8.03;5.20;;;;;;;;;;5093127;28;20487;-64
2024/01/15 11:49:43;;;;;;;5.70;4.23;;;;;;;;;;5086896;28;20467;-65
2024/01/15 11:52:12;;;;;;;5.50;4.40;;;;;;;;;;5088818;28;20452;-64
2024/01/15 11:54:39;;;;;;;8.93;4.30;;;;;;;;;;5093367;28;20459;-66
2024/01/15 11:57:10;;;;;;;9.17;4.93;;;;;;;;;;5095547;28;20451;-66
2024/01/15 11:59:37;;;;;;;4.40;3.87;;;;;;;;;;5092114;28;20491;-68
2024/01/15 12:02:03;;;;;;;10.13;5.50;;;;;;;;;;5096882;28;20475;-65
2024/01/15 12:04:31;;;;;;;7.53;6.87;;;;;;;;;;5092455;28;20554;-63
2024/01/15 12:06:58;;;;;;;7.00;6.40;;;;;;;;;;5095677;28;20443;-70
2024/01/15 12:09:24;;;;;;;7.70;6.93;;;;;;;;;;5095772;28;20493;-65
2024/01/15 12:11:52;;;;;;;7.30;6.10;;;;;;;;;;5095302;28;20481;-65
2024/01/15 12:14:19;;;;;;;6.40;4.93;;;;;;;;;;5099186;28;20517;-66
2024/01/15 12:16:45;;;;;;;5.17;4.73;;;;;;;;;;5096210;28;20479;-66
2024/01/15 12:19:12;;;;;;;7.23;4.93;;;;;;;;;;5094303;28;20483;-64
2024/01/15 12:21:41;;;;;;;11.20;5.30;;;;;;;;;;5089408;28;20443;-64
2024/01/15 12:24:08;;;;;;;4.93;4.43;;;;;;;;;;5093155;28;20527;-67
2024/01/15 12:26:35;;;;;;;4.90;4.50;;;;;;;;;;5100856;28;20463;-66
2024/01/15 12:29:01;;;;;;;5.10;4.70;;;;;;;;;;5098132;28;20534;-66
2024/01/15 12:31:28;;;;;;;7.60;5.67;;;;;;;;;;5081196;28;20480;-66
2024/01/15 12:33:54;;;;;;;4.50;4.10;;;;;;;;;;5089137;28;20466;-65
2024/01/15 12:36:21;;;;;;;5.50;4.23;;;;;;;;;;5096572;28;20586;-65
2024/01/15 12:38:49;;;;;;;11.03;5.07;;;;;;;;;;5099706;28;20531;-65
2024/01/15 12:41:16;;;;;;;6.83;4.67;;;;;;;;;;5105415;28;21041;-66
2024/01/15 12:43:43;;;;;;;5.23;4.73;;;;;;;;;;5096500;28;20544;-64
2024/01/15 12:46:10;;;;;;;8.60;4.90;;;;;;;;;;5093805;28;20956;-64
2024/01/15 12:48:36;;;;;;;6.53;4.53;;;;;;;;;;5104560;28;20464;-66
2024/01/15 12:51:06;;;;;;;8.47;4.33;;;;;;;;;;5101139;28;20455;-65
2024/01/15 12:53:32;;;;;;;7.63;4.40;;;;;;;;;;5098346;28;20454;-65
2024/01/15 12:56:00;;;;;;;4.30;3.90;;;;;;;;;;5100873;28;20570;-62
2024/01/15 12:58:27;;;;;;;4.50;3.63;;;;;;;;;;5100591;28;20451;-65
2024/01/15 13:00:53;;;;;;;7.70;4.50;;;;;;;;;;5101029;28;21160;-63
2024/01/15 13:03:20;;;;;;;4.03;3.50;;;;;;;;;;5099754;28;20522;-65
2024/01/15 13:05:46;;;;;;;5.47;3.70;;;;;;;;;;5102009;28;20465;-65
2024/01/15 13:08:14;;;;;;;3.80;3.47;;;;;;;;;;5096695;28;20488;-64
2024/01/15 13:10:42;;;;;;;4.50;4.10;;;;;;;;;;5101071;28;20469;-65
2024/01/15 13:13:09;;;;;;;4.40;4.00;;;;;;;;;;5103227;28;20518;-63
2024/01/15 13:15:36;;;;;;;4.83;4.33;;;;;;;;;;5099693;28;20487;-65
2024/01/15 13:18:03;;;;;;;4.47;3.50;;;;;;;;;;5093637;28;20770;-63
2024/01/15 13:20:29;;;;;;;3.80;3.40;;;;;;;;;;5105691;28;20863;-66
2024/01/15 13:22:56;;;;;;;8.53;3.70;;;;;;;;;;5108970;28;20469;-65
2024/01/15 13:25:22;;;;;;;3.50;3.20;;;;;;;;;;5104827;28;20475;-65
2024/01/15 13:27:49;;;;;;;3.67;3.37;;;;;;;;;;5099283;28;20455;-65
2024/01/15 13:30:17;;;;;;;4.00;3.60;;;;;;;;;;5096402;28;20461;-64
2024/01/15 13:32:43;;;;;;;5.53;3.80;;;;;;;;;;5104775;28;20450;-63
2024/01/15 13:35:12;;;;;;;5.57;3.60;;;;;;;;;;5101458;28;20553;-64
2024/01/15 13:37:41;;;;;;;4.87;3.57;;;;;;;;;;5102748;28;20941;-66
2024/01/15 13:40:09;;;;;;;5.10;3.77;;;;;;;;;;5114255;28;20545;-66
2024/01/15 13:42:37;;;;;;;4.67;3.63;;;;;;;;;;5098442;28;20718;-66
2024/01/15 13:45:05;;;;;;;3.93;3.60;;;;;;;;;;5098410;28;20512;-66
2024/01/15 13:47:33;;;;;;;7.50;4.30;;;;;;;;;;5098212;28;20520;-65
2024/01/15 13:50:00;;;;;;;4.37;3.83;;;;;;;;;;5102391;28;20443;-67
2024/01/15 13:52:27;;;;;;;6.90;3.80;;;;;;;;;;5088218;28;20451;-63
2024/01/15 13:54:54;;;;;;;4.47;3.77;;;;;;;;;;5087530;28;20478;-65
2024/01/15 13:57:20;;;;;;;4.43;4.03;;;;;;;;;;5091821;28;20515;-66
2024/01/15 13:59:48;;;;;;;7.00;4.00;;;;;;;;;;5091409;28;20458;-65
2024/01/15 14:02:15;;;;;;;3.97;3.60;;;;;;;;;;5095869;28;20443;-64
2024/01/15 14:04:43;;;;;;;3.43;3.20;;;;;;;;;;5092820;28;20454;-64
2024/01/15 14:07:09;;;;;;;3.70;3.23;;;;;;;;;;5095060;28;20478;-65
2024/01/15 14:09:37;;;;;;;4.67;4.03;;;;;;;;;;5095898;28;20447;-65
2024/01/15 14:12:03;;;;;;;4.00;3.70;;;;;;;;;;5088538;28;20531;-64
2024/01/15 14:14:30;;;;;;;4.47;3.37;;;;;;;;;;5093712;28;20479;-64
2024/01/15 14:16:56;;;;;;;5.00;3.50;;;;;;;;;;5090374;28;20482;-63
2024/01/15 14:19:23;;;;;;;4.27;3.13;;;;;;;;;;5088422;28;20484;-63
2024/01/15 14:21:50;;;;;;;4.13;3.37;;;;;;;;;;5093552;28;20475;-65
2024/01/15 14:24:17;;;;;;;2.60;2.43;;;;;;;;;;5088177;28;20459;-68
2024/01/15 14:26:43;;;;;;;6.10;3.70;;;;;;;;;;5089040;28;20958;-66
2024/01/15 14:29:10;;;;;;;3.27;2.70;;;;;;;;;;5096121;28;20466;-67
2024/01/15 14:31:36;;;;;;;5.17;3.40;;;;;;;;;;5091916;28;20449;-65
2024/01/15 14:34:03;;;;;;;5.93;2.30;;;;;;;;;;5096042;28;20453;-67